Time;durP1;ratioP1;P1;durP2;ratioP2;P2;SDS_P1;SDS_P2;PMS_P1;PMS_P2;Temp;Humidity;BMP_temperature;BMP_pressure;BME280_temperature;BME280_humidity;BME280_pressure;Samples;Min_cycle;Max_cycle;Signal;HPM_P1;HPM_P2
2022/06/09 00:02:35;;;;;;;;;;;;;;;17.26;81.60;99486.91;10390876;28;19940;-61
2022/06/09 00:07:37;;;;;;;;;;;;;;;17.40;81.77;99512.13;10395674;28;19928;-62
2022/06/09 00:12:39;;;;;;;;;;;;;;;17.42;81.30;99518.16;10390110;28;19921;-61
2022/06/09 00:17:41;;;;;;;;;;;;;;;17.31;81.44;99522.13;10389786;28;19935;-62
2022/06/09 00:22:42;;;;;;;;;;;;;;;17.25;81.78;99527.41;10390579;28;19935;-63
2022/06/09 00:27:44;;;;;;;;;;;;;;;17.20;81.98;99522.59;10390520;28;19933;-62
2022/06/09 00:32:45;;;;;;;;;;;;;;;17.07;82.25;99539.38;10390856;28;20466;-61
2022/06/09 00:37:46;;;;;;;;;;;;;;;17.10;81.96;99533.63;10391321;28;20019;-65
2022/06/09 00:42:48;;;;;;;;;;;;;;;17.07;82.45;99546.56;10392795;28;19935;-62
2022/06/09 00:47:50;;;;;;;;;;;;;;;16.99;82.84;99555.56;10390150;28;19929;-61
2022/06/09 00:52:54;;;;;;;;;;;;;;;16.94;82.96;99556.09;10396083;28;20684;-64
2022/06/09 00:57:59;;;;;;;;;;;;;;;16.96;82.58;99561.31;10389243;28;19936;-61
2022/06/09 01:03:01;;;;;;;;;;;;;;;16.96;82.66;99559.47;10391056;28;20762;-62
2022/06/09 01:08:03;;;;;;;;;;;;;;;16.82;81.99;99562.91;10392687;28;19940;-62
2022/06/09 01:13:05;;;;;;;;;;;;;;;16.85;82.80;99565.22;10393890;28;19936;-63
2022/06/09 01:18:13;;;;;;;;;;;;;;;16.88;82.46;99564.91;10397580;28;19937;-61
2022/06/09 01:23:17;;;;;;;;;;;;;;;16.88;81.37;99569.47;10397922;28;19929;-61
2022/06/09 01:28:37;;;;;;;;;;;;;;;16.86;82.48;99569.59;10397478;28;20154;-62
2022/06/09 01:34:07;;;;;;;;;;;;;;;16.83;81.91;99567.28;10428939;28;19943;-62
2022/06/09 01:39:09;;;;;;;;;;;;;;;16.74;82.48;99565.69;10397710;28;20633;-62
2022/06/09 01:44:10;;;;;;;;;;;;;;;16.75;82.16;99572.72;10399879;28;19925;-62
2022/06/09 01:49:14;;;;;;;;;;;;;;;16.75;82.23;99564.66;10411230;28;19965;-62
2022/06/09 01:54:20;;;;;;;;;;;;;;;16.71;82.02;99574.06;10420189;28;19959;-62
2022/06/09 01:59:23;;;;;;;;;;;;;;;16.67;82.28;99576.28;10408796;28;20702;-63
2022/06/09 02:04:29;;;;;;;;;;;;;;;16.67;81.99;99580.84;10404357;28;20577;-62
2022/06/09 02:09:31;;;;;;;;;;;;;;;16.58;82.39;99572.84;10401172;28;19939;-63
2022/06/09 02:14:34;;;;;;;;;;;;;;;16.50;82.50;99575.59;10392369;28;19929;-63
2022/06/09 02:19:36;;;;;;;;;;;;;;;16.37;84.12;99572.66;10394665;28;19929;-62
2022/06/09 02:24:38;;;;;;;;;;;;;;;16.35;83.85;99580.03;10394478;28;19929;-63
2022/06/09 02:29:40;;;;;;;;;;;;;;;16.36;84.16;99573.66;10400585;28;20315;-62
2022/06/09 02:34:41;;;;;;;;;;;;;;;16.25;84.38;99586.47;10401383;28;20025;-61
2022/06/09 02:39:42;;;;;;;;;;;;;;;16.08;85.97;99593.78;10393467;28;19929;-62
2022/06/09 02:44:43;;;;;;;;;;;;;;;16.15;85.77;99599.28;10392651;28;20307;-62
2022/06/09 02:49:45;;;;;;;;;;;;;;;16.16;85.34;99595.59;10390593;28;20011;-63
2022/06/09 02:54:46;;;;;;;;;;;;;;;16.16;85.53;99595.59;10393873;28;19933;-62
2022/06/09 02:59:48;;;;;;;;;;;;;;;16.17;84.90;99599.97;10393528;28;20015;-62
2022/06/09 03:04:50;;;;;;;;;;;;;;;16.10;85.34;99596.31;10404150;28;19939;-62
2022/06/09 03:09:51;;;;;;;;;;;;;;;16.03;85.36;99596.19;10395843;28;20028;-61
2022/06/09 03:14:53;;;;;;;;;;;;;;;15.92;85.45;99604.59;10396448;28;20028;-62
2022/06/09 03:19:55;;;;;;;;;;;;;;;15.94;85.57;99601.75;10403858;28;19929;-61
2022/06/09 03:24:56;;;;;;;;;;;;;;;15.97;85.65;99612.94;10399059;28;20572;-61
2022/06/09 03:29:59;;;;;;;;;;;;;;;15.98;84.41;99611.13;10389406;28;19928;-62
2022/06/09 03:35:00;;;;;;;;;;;;;;;15.98;84.39;99628.06;10402142;28;20004;-62
2022/06/09 03:40:03;;;;;;;;;;;;;;;15.87;84.26;99634.66;10400180;28;19929;-61
2022/06/09 03:45:04;;;;;;;;;;;;;;;15.71;84.64;99634.66;10391733;28;19935;-62
2022/06/09 03:50:07;;;;;;;;;;;;;;;15.55;85.41;99633.69;10391722;28;20003;-62
2022/06/09 03:55:08;;;;;;;;;;;;;;;15.49;84.62;99630.84;10392032;28;19968;-61
2022/06/09 04:00:13;;;;;;;;;;;;;;;15.33;84.81;99608.44;10389517;28;19929;-63
2022/06/09 04:05:14;;;;;;;;;;;;;;;15.39;84.48;99652.50;10393942;28;20104;-62
2022/06/09 04:10:18;;;;;;;;;;;;;;;15.43;84.98;99650.31;10396858;28;20481;-61
2022/06/09 04:15:20;;;;;;;;;;;;;;;15.42;83.94;99662.88;10402987;28;19939;-61
2022/06/09 04:20:23;;;;;;;;;;;;;;;15.48;83.93;99669.44;10397869;28;19932;-60
2022/06/09 04:25:24;;;;;;;;;;;;;;;15.41;85.97;99665.75;10399604;28;20000;-61
2022/06/09 04:30:25;;;;;;;;;;;;;;;15.52;83.88;99668.91;10433644;28;19937;-60
2022/06/09 04:35:27;;;;;;;;;;;;;;;15.51;84.13;99677.13;10415835;28;19921;-62
2022/06/09 04:40:33;;;;;;;;;;;;;;;15.45;84.51;99675.97;10423451;28;19960;-61
2022/06/09 04:45:35;;;;;;;;;;;;;;;15.50;84.96;99680.81;10422823;28;20002;-61
2022/06/09 04:50:37;;;;;;;;;;;;;;;15.63;84.23;99682.97;10415561;28;19925;-61
2022/06/09 04:55:39;;;;;;;;;;;;;;;15.68;82.89;99677.94;10399401;28;19929;-62
2022/06/09 05:00:41;;;;;;;;;;;;;;;15.65;83.44;99689.00;10412389;28;21316;-61
2022/06/09 05:05:43;;;;;;;;;;;;;;;15.73;83.40;99686.28;10395576;28;19932;-63
2022/06/09 05:10:45;;;;;;;;;;;;;;;15.78;82.38;99694.72;10403004;28;19929;-61
2022/06/09 05:15:49;;;;;;;;;;;;;;;15.82;81.66;99701.44;10416971;28;20508;-61
2022/06/09 05:20:51;;;;;;;;;;;;;;;15.76;80.91;99714.63;10400400;28;19928;-61
2022/06/09 05:25:53;;;;;;;;;;;;;;;15.80;82.46;99724.88;10423438;28;19972;-62
2022/06/09 05:30:55;;;;;;;;;;;;;;;15.78;79.03;99732.28;10404146;28;21037;-62
2022/06/09 05:35:56;;;;;;;;;;;;;;;15.87;78.57;99735.81;10412798;28;19937;-63
2022/06/09 05:46:19;;;;;;;;;;;;;;;16.29;75.96;99760.69;10416530;28;19984;-61
2022/06/09 05:51:20;;;;;;;;;;;;;;;16.25;75.59;99765.56;10409651;28;19933;-61
2022/06/09 05:56:21;;;;;;;;;;;;;;;16.26;76.97;99767.25;10403784;28;19928;-60
2022/06/09 06:01:23;;;;;;;;;;;;;;;16.17;77.36;99782.53;10407931;28;20031;-61
2022/06/09 06:06:33;;;;;;;;;;;;;;;16.42;77.16;99791.38;10416195;28;20011;-62
2022/06/09 06:12:21;;;;;;;;;;;;;;;16.75;74.61;99787.69;10398362;27;20724;-61
2022/06/09 06:17:22;;;;;;;;;;;;;;;16.94;74.00;99792.69;10401118;28;20117;-61
2022/06/09 06:22:24;;;;;;;;;;;;;;;17.10;72.94;99799.81;10375993;28;20809;-64
2022/06/09 06:27:26;;;;;;;;;;;;;;;17.19;71.65;99800.63;10391472;28;20031;-65
2022/06/09 06:32:48;;;;;;;;;;;;;;;17.13;71.34;99806.72;10363207;28;19929;-63
2022/06/09 06:37:49;;;;;;;;;;;;;;;16.92;71.41;99800.09;10375230;28;19995;-63
2022/06/09 06:42:50;;;;;;;;;;;;;;;17.06;73.53;99817.31;10377373;28;20304;-62
2022/06/09 06:47:52;;;;;;;;;;;;;;;17.12;70.55;99818.47;10377062;28;19931;-63
2022/06/09 06:52:53;;;;;;;;;;;;;;;17.33;68.68;99822.38;10377664;28;19961;-62
2022/06/09 06:57:54;;;;;;;;;;;;;;;17.10;68.18;99785.56;10371570;28;20028;-64
2022/06/09 07:02:56;;;;;;;;;;;;;;;17.83;67.18;99829.06;10372108;28;20296;-63
2022/06/09 07:08:31;;;;;;;;;;;;;;;18.14;65.60;99836.25;10378248;28;19932;-63
2022/06/09 07:13:32;;;;;;;;;;;;;;;18.08;64.61;99837.81;10398071;28;19988;-64
2022/06/09 07:18:35;;;;;;;;;;;;;;;18.24;63.84;99841.34;10413815;28;19929;-63
2022/06/09 07:23:36;;;;;;;;;;;;;;;18.70;61.31;99847.41;10387629;28;20424;-62
2022/06/09 07:28:38;;;;;;;;;;;;;;;18.63;61.41;99857.28;10368016;28;19928;-63
2022/06/09 07:33:40;;;;;;;;;;;;;;;18.21;64.56;99864.13;10385313;28;19931;-64
2022/06/09 07:38:42;;;;;;;;;;;;;;;17.98;67.21;99875.75;10386994;28;21371;-64
2022/06/09 07:43:46;;;;;;;;;;;;;;;17.88;70.97;99872.44;10383051;28;19936;-64
2022/06/09 07:48:52;;;;;;;;;;;;;;;17.85;69.09;99878.19;10382789;28;20441;-64
2022/06/09 07:53:53;;;;;;;;;;;;;;;17.87;69.04;99881.53;10381635;28;19936;-64
2022/06/09 07:58:55;;;;;;;;;;;;;;;18.12;69.70;99886.75;10378086;28;19938;-67
2022/06/09 08:03:57;;;;;;;;;;;;;;;18.62;69.10;99882.56;10378535;28;20074;-63
2022/06/09 08:08:59;;;;;;;;;;;;;;;18.81;65.51;99880.31;10382361;28;20336;-65
2022/06/09 08:14:02;;;;;;;;;;;;;;;18.86;64.81;99884.16;10379440;28;19924;-65
2022/06/09 08:19:03;;;;;;;;;;;;;;;18.59;65.08;99888.31;10382354;28;19933;-65
2022/06/09 08:24:05;;;;;;;;;;;;;;;18.23;66.24;99902.47;10380930;28;20002;-64
2022/06/09 08:29:07;;;;;;;;;;;;;;;18.06;70.21;99903.63;10378878;28;20211;-64
2022/06/09 08:34:11;;;;;;;;;;;;;;;18.16;71.89;99912.31;10378734;28;19939;-67
2022/06/09 08:39:12;;;;;;;;;;;;;;;18.38;72.19;99916.81;10375938;28;19932;-65
2022/06/09 08:44:16;;;;;;;;;;;;;;;18.50;70.75;99911.00;10379764;28;19933;-65
2022/06/09 08:49:38;;;;;;;;;;;;;;;18.64;70.78;99917.41;10381538;28;19928;-65
2022/06/09 08:54:40;;;;;;;;;;;;;;;18.76;71.99;99925.88;10364879;28;19925;-64
2022/06/09 08:59:42;;;;;;;;;;;;;;;19.33;68.98;99936.03;10369919;28;19932;-64
2022/06/09 09:04:45;;;;;;;;;;;;;;;19.93;67.86;99935.91;10355089;28;20231;-64
2022/06/09 09:09:47;;;;;;;;;;;;;;;20.30;64.54;99944.78;10356804;28;19932;-65
2022/06/09 09:14:54;;;;;;;;;;;;;;;20.72;60.11;99932.22;10374377;28;19937;-65
2022/06/09 09:20:02;;;;;;;;;;;;;;;20.54;59.12;99946.22;10368580;28;19936;-64
2022/06/09 09:25:28;;;;;;;;;;;;;;;21.09;57.66;99938.28;10373272;28;19975;-63
2022/06/09 09:30:30;;;;;;;;;;;;;;;21.34;55.75;99938.59;10370074;28;19932;-64
2022/06/09 09:35:31;;;;;;;;;;;;;;;21.30;55.33;99955.44;10374775;28;19990;-64
2022/06/09 09:40:34;;;;;;;;;;;;;;;20.75;54.85;99961.56;10391313;28;19944;-65
2022/06/09 09:45:38;;;;;;;;;;;;;;;20.76;54.55;99965.97;10375905;28;19988;-64
2022/06/09 09:50:46;;;;;;;;;;;;;;;20.84;54.26;99971.22;10389229;28;19928;-63
2022/06/09 09:55:50;;;;;;;;;;;;;;;21.35;50.26;99969.22;10389792;28;20576;-65
2022/06/09 10:00:55;;;;;;;;;;;;;;;21.40;51.34;99976.72;10355469;23;19936;-66
2022/06/09 10:11:54;;;;;;;;;;;;;;;20.72;54.47;99983.59;10346650;28;20011;-62
2022/06/09 10:17:19;;;;;;;;;;;;;;;21.02;54.79;99988.81;10348929;28;20110;-63
2022/06/09 10:22:38;;;;;;;;;;;;;;;21.36;53.20;99996.09;10348177;28;19921;-64
2022/06/09 10:27:43;;;;;;;;;;;;;;;21.43;53.32;99998.81;10347204;28;19945;-62
2022/06/09 10:32:44;;;;;;;;;;;;;;;21.23;54.07;100003.28;10348139;28;19943;-63
2022/06/09 10:37:45;;;;;;;;;;;;;;;21.48;54.42;100009.03;10349135;28;19936;-62
2022/06/09 10:42:59;;;;;;;;;;;;;;;21.10;55.33;100015.69;10347733;28;20023;-63
2022/06/09 10:58:58;;;;;;;;;;;;;;;21.04;51.45;100021.91;10353525;28;20150;-62
2022/06/09 11:04:01;;;;;;;;;;;;;;;21.45;50.71;100018.41;10354608;28;20231;-62
2022/06/09 11:09:11;;;;;;;;;;;;;;;21.65;50.13;100013.13;10369945;28;19933;-62
2022/06/09 11:14:22;;;;;;;;;;;;;;;22.11;50.15;100011.56;10355445;28;20631;-62
2022/06/09 11:19:48;;;;;;;;;;;;;;;22.72;47.73;100010.63;10354971;28;19929;-62
2022/06/09 11:25:12;;;;;;;;;;;;;;;22.02;48.94;100005.53;10351020;28;19929;-62
2022/06/09 11:30:13;;;;;;;;;;;;;;;21.39;50.65;100023.78;10356842;28;20387;-63
2022/06/09 11:35:14;;;;;;;;;;;;;;;21.22;50.78;100017.88;10359520;28;19933;-62
2022/06/09 11:40:22;;;;;;;;;;;;;;;21.09;51.67;100035.69;10353322;28;19944;-61
2022/06/09 11:45:26;;;;;;;;;;;;;;;20.77;52.95;100029.00;10351195;28;19929;-61
2022/06/09 11:50:31;;;;;;;;;;;;;;;20.68;52.93;100033.72;10351641;28;20079;-61
2022/06/09 11:55:58;;;;;;;;;;;;;;;20.63;53.23;100041.53;10353985;28;19939;-61
2022/06/09 12:01:08;;;;;;;;;;;;;;;20.62;53.60;100035.28;10351361;28;20307;-62
2022/06/09 12:06:14;;;;;;;;;;;;;;;20.82;52.74;100045.47;10350649;28;19929;-62
2022/06/09 12:11:18;;;;;;;;;;;;;;;21.09;51.52;100046.53;10365651;28;19933;-61
2022/06/09 12:16:25;;;;;;;;;;;;;;;21.33;51.88;100052.47;10351457;28;19929;-61
2022/06/09 12:21:29;;;;;;;;;;;;;;;21.68;51.45;100044.38;10350325;28;19933;-62
2022/06/09 12:26:39;;;;;;;;;;;;;;;22.10;49.37;100064.13;10350681;28;19999;-61
2022/06/09 12:32:01;;;;;;;;;;;;;;;22.56;49.55;100065.28;10365002;28;21283;-61
2022/06/09 12:37:02;;;;;;;;;;;;;;;22.69;47.85;100061.78;10351315;28;20036;-62
2022/06/09 12:42:05;;;;;;;;;;;;;;;23.18;46.58;100059.69;10350844;28;20518;-62
2022/06/09 12:47:17;;;;;;;;;;;;;;;23.42;44.04;100071.75;10349692;28;19929;-62
2022/06/09 12:52:23;;;;;;;;;;;;;;;23.30;44.05;100069.69;10363003;28;19998;-61
2022/06/09 12:57:27;;;;;;;;;;;;;;;23.56;43.00;100076.09;10352774;28;19940;-61
2022/06/09 13:02:31;;;;;;;;;;;;;;;22.92;44.44;100081.19;10346478;28;19929;-61
2022/06/09 13:07:34;;;;;;;;;;;;;;;22.54;45.43;100057.38;10364307;28;20204;-61
2022/06/09 13:12:51;;;;;;;;;;;;;;;22.84;46.38;100075.13;10351198;28;20423;-62
2022/06/09 13:17:52;;;;;;;;;;;;;;;22.84;46.32;100091.41;10353260;28;19933;-62
2022/06/09 13:22:53;;;;;;;;;;;;;;;22.93;46.94;100082.84;10349635;28;20024;-61
2022/06/09 13:27:56;;;;;;;;;;;;;;;22.78;46.62;100090.38;10350339;28;19956;-60
2022/06/09 13:32:58;;;;;;;;;;;;;;;23.03;44.86;100089.72;10348637;28;19933;-62
2022/06/09 13:38:33;;;;;;;;;;;;;;;23.02;43.18;100098.94;10346338;28;19925;-60
2022/06/09 13:43:36;;;;;;;;;;;;;;;23.12;43.56;100105.63;10343777;28;19937;-60
2022/06/09 13:48:57;;;;;;;;;;;;;;;23.40;42.52;100095.56;10341670;28;19929;-60
2022/06/09 13:54:00;;;;;;;;;;;;;;;23.44;42.33;100107.69;10347796;28;19929;-63
2022/06/09 13:59:01;;;;;;;;;;;;;;;23.09;43.19;100111.50;10348601;28;19963;-62
2022/06/09 14:04:05;;;;;;;;;;;;;;;22.94;43.83;100108.94;10347455;28;20323;-63
2022/06/09 14:09:07;;;;;;;;;;;;;;;22.76;44.34;100114.16;10361261;28;19940;-63
2022/06/09 14:14:08;;;;;;;;;;;;;;;22.63;43.80;100112.25;10344982;28;20909;-61
2022/06/09 14:19:11;;;;;;;;;;;;;;;22.41;41.50;100125.13;10345553;28;20952;-62
2022/06/09 14:24:15;;;;;;;;;;;;;;;22.38;40.01;100114.69;10347842;28;19929;-63
2022/06/09 14:29:17;;;;;;;;;;;;;;;22.27;40.20;100118.81;10346142;28;19939;-62
2022/06/09 14:34:18;;;;;;;;;;;;;;;22.06;40.27;100098.09;10353189;28;19956;-62
2022/06/09 14:39:20;;;;;;;;;;;;;;;22.14;39.87;100130.44;10356131;28;20068;-63
2022/06/09 14:44:22;;;;;;;;;;;;;;;21.90;39.62;100093.84;10371815;28;20043;-61
2022/06/09 14:49:29;;;;;;;;;;;;;;;22.27;39.82;100143.22;10354744;28;19937;-62
2022/06/09 14:54:32;;;;;;;;;;;;;;;22.05;37.66;100150.63;10357459;28;20035;-62
2022/06/09 14:59:33;;;;;;;;;;;;;;;22.28;39.56;100165.72;10357791;28;19933;-60
2022/06/09 15:04:34;;;;;;;;;;;;;;;22.48;39.04;100174.81;10356101;28;19936;-61
2022/06/09 15:09:37;;;;;;;;;;;;;;;22.58;39.08;100194.25;10356256;28;19933;-60
2022/06/09 15:14:38;;;;;;;;;;;;;;;22.57;39.54;100200.69;10361278;28;19951;-61
2022/06/09 15:19:41;;;;;;;;;;;;;;;22.49;39.19;100205.47;10361320;28;19944;-62
2022/06/09 15:24:43;;;;;;;;;;;;;;;22.47;40.18;100212.97;10363414;28;19940;-61
2022/06/09 15:29:44;;;;;;;;;;;;;;;22.08;42.21;100215.25;10358138;28;19971;-62
2022/06/09 15:34:45;;;;;;;;;;;;;;;22.07;43.96;100217.16;10382908;28;20392;-62
2022/06/09 15:39:47;;;;;;;;;;;;;;;21.90;44.71;100207.66;10366570;28;19928;-60
2022/06/09 15:44:48;;;;;;;;;;;;;;;21.84;44.73;100219.28;10352555;28;19925;-61
2022/06/09 15:49:49;;;;;;;;;;;;;;;22.02;44.50;100224.19;10341895;28;20055;-61
2022/06/09 15:54:51;;;;;;;;;;;;;;;22.10;41.28;100224.06;10348563;28;19929;-60
2022/06/09 15:59:52;;;;;;;;;;;;;;;22.05;39.80;100229.22;10366407;28;19929;-60
2022/06/09 16:04:53;;;;;;;;;;;;;;;22.37;39.59;100237.78;10353250;28;19929;-61
2022/06/09 16:09:54;;;;;;;;;;;;;;;22.04;40.90;100235.69;10350121;28;19933;-61
2022/06/09 16:14:56;;;;;;;;;;;;;;;21.77;41.67;100237.38;10354259;28;19933;-61
2022/06/09 16:19:57;;;;;;;;;;;;;;;21.83;41.74;100247.44;10349647;28;20040;-61
2022/06/09 16:24:58;;;;;;;;;;;;;;;21.74;41.40;100252.16;10352089;28;19933;-61
2022/06/09 16:30:00;;;;;;;;;;;;;;;21.31;41.68;100257.59;10358076;28;20182;-61
2022/06/09 16:35:02;;;;;;;;;;;;;;;21.34;41.47;100263.44;10362886;28;19941;-60
2022/06/09 16:40:04;;;;;;;;;;;;;;;21.09;40.51;100267.56;10352585;28;19925;-62
2022/06/09 16:45:06;;;;;;;;;;;;;;;21.10;41.24;100270.09;10352066;28;19933;-63
2022/06/09 16:50:09;;;;;;;;;;;;;;;21.06;41.72;100273.38;10352920;28;20512;-62
2022/06/09 16:55:11;;;;;;;;;;;;;;;21.09;42.23;100279.25;10338486;28;19929;-62
2022/06/09 17:00:14;;;;;;;;;;;;;;;21.13;42.35;100285.09;10343672;28;19933;-61
2022/06/09 17:05:16;;;;;;;;;;;;;;;21.21;42.59;100293.09;10348325;28;20381;-61
2022/06/09 17:10:18;;;;;;;;;;;;;;;21.08;42.86;100293.81;10346190;28;19955;-63
2022/06/09 17:15:20;;;;;;;;;;;;;;;21.15;42.89;100294.72;10353303;28;19928;-63
2022/06/09 17:20:21;;;;;;;;;;;;;;;20.82;43.64;100268.13;10347663;28;19955;-64
2022/06/09 17:25:22;;;;;;;;;;;;;;;20.99;43.89;100301.19;10350451;28;20754;-61
2022/06/09 17:30:24;;;;;;;;;;;;;;;20.98;44.12;100309.50;10347719;28;20038;-60
2022/06/09 17:35:25;;;;;;;;;;;;;;;20.95;44.02;100318.00;10353248;28;19933;-63
2022/06/09 17:40:27;;;;;;;;;;;;;;;20.75;44.56;100326.72;10349785;28;19933;-62
2022/06/09 17:45:28;;;;;;;;;;;;;;;20.70;45.24;100334.53;10350434;28;19933;-62
2022/06/09 17:50:31;;;;;;;;;;;;;;;20.53;45.40;100343.84;10349126;28;19935;-63
2022/06/09 17:55:33;;;;;;;;;;;;;;;20.12;46.03;100302.72;10353077;28;20037;-61
2022/06/09 18:00:42;;;;;;;;;;;;;;;20.46;44.53;100350.00;10347382;28;19933;-62
2022/06/09 18:05:44;;;;;;;;;;;;;;;20.31;45.40;100362.66;10348413;28;19935;-61
2022/06/09 18:10:47;;;;;;;;;;;;;;;20.36;45.60;100365.66;10346235;28;19926;-62
2022/06/09 18:15:50;;;;;;;;;;;;;;;20.28;45.49;100384.66;10349490;28;20711;-63
2022/06/09 18:20:52;;;;;;;;;;;;;;;20.07;45.67;100378.09;10348450;28;19929;-62
2022/06/09 18:25:56;;;;;;;;;;;;;;;20.02;45.95;100383.19;10347083;28;20253;-63
2022/06/09 18:30:59;;;;;;;;;;;;;;;20.02;46.30;100396.72;10346725;28;19925;-63
2022/06/09 18:36:00;;;;;;;;;;;;;;;20.00;46.60;100395.22;10348097;28;19933;-62
2022/06/09 18:41:02;;;;;;;;;;;;;;;19.92;46.56;100404.22;10347220;28;20491;-61
2022/06/09 18:46:07;;;;;;;;;;;;;;;19.90;46.65;100411.66;10351304;28;20024;-63
2022/06/09 18:51:13;;;;;;;;;;;;;;;19.88;46.98;100417.25;10350963;28;19936;-63
2022/06/09 18:56:15;;;;;;;;;;;;;;;19.84;46.77;100415.09;10349515;28;19925;-62
2022/06/09 19:01:17;;;;;;;;;;;;;;;19.80;47.41;100425.41;10349860;28;20643;-62
2022/06/09 19:06:21;;;;;;;;;;;;;;;19.75;47.73;100434.00;10351714;28;20022;-62
2022/06/09 19:11:24;;;;;;;;;;;;;;;19.78;48.20;100440.97;10355017;28;19964;-62
2022/06/09 19:16:25;;;;;;;;;;;;;;;19.60;47.42;100439.34;10361160;28;20331;-63
2022/06/09 19:21:27;;;;;;;;;;;;;;;19.54;48.21;100441.94;10358077;28;19933;-62
2022/06/09 19:26:28;;;;;;;;;;;;;;;19.54;48.77;100452.72;10357150;28;19933;-62
2022/06/09 19:31:32;;;;;;;;;;;;;;;19.51;48.35;100463.88;10357310;28;20098;-62
2022/06/09 19:36:33;;;;;;;;;;;;;;;19.41;48.69;100470.34;10360817;28;19952;-63
2022/06/09 19:41:36;;;;;;;;;;;;;;;19.46;50.00;100477.09;10355506;28;20602;-63
2022/06/09 19:46:38;;;;;;;;;;;;;;;19.46;50.49;100487.88;10356265;28;19929;-62
2022/06/09 19:51:39;;;;;;;;;;;;;;;19.41;50.65;100489.25;10354753;28;19933;-63
2022/06/09 19:56:41;;;;;;;;;;;;;;;19.36;51.04;100504.28;10353846;28;21131;-62
2022/06/09 20:01:43;;;;;;;;;;;;;;;19.39;51.58;100506.63;10353441;28;21164;-63
2022/06/09 20:06:44;;;;;;;;;;;;;;;19.47;51.39;100512.00;10354502;28;22184;-63
2022/06/09 20:11:46;;;;;;;;;;;;;;;19.50;51.25;100519.75;10350643;28;19936;-62
2022/06/09 20:16:47;;;;;;;;;;;;;;;19.53;51.23;100526.63;10354022;28;19939;-63
2022/06/09 20:21:48;;;;;;;;;;;;;;;19.51;51.36;100534.91;10352800;28;19944;-61
2022/06/09 20:26:51;;;;;;;;;;;;;;;19.45;51.17;100537.47;10351767;28;20284;-64
2022/06/09 20:31:53;;;;;;;;;;;;;;;19.29;52.88;100547.31;10345743;28;19929;-62
2022/06/09 20:36:54;;;;;;;;;;;;;;;19.27;53.66;100557.44;10346890;28;20399;-65
2022/06/09 20:41:55;;;;;;;;;;;;;;;19.22;53.83;100551.72;10351403;28;19929;-67
2022/06/09 20:46:57;;;;;;;;;;;;;;;19.17;53.89;100560.34;10351452;28;19939;-66
2022/06/09 20:51:58;;;;;;;;;;;;;;;19.05;54.67;100567.94;10353502;28;19936;-63
2022/06/09 20:57:00;;;;;;;;;;;;;;;19.04;54.27;100576.22;10379283;28;19980;-64
2022/06/09 21:02:02;;;;;;;;;;;;;;;18.90;55.49;100580.44;10374520;28;19957;-62
2022/06/09 21:07:03;;;;;;;;;;;;;;;18.89;56.56;100581.44;10374258;28;19936;-63
2022/06/09 21:22:45;;;;;;;;;;;;;;;18.62;57.40;100593.41;10373788;28;20380;-62
2022/06/09 21:27:46;;;;;;;;;;;;;;;18.66;57.06;100595.59;10374069;28;19932;-63
2022/06/09 21:32:47;;;;;;;;;;;;;;;18.65;57.27;100595.75;10371294;28;19925;-63
2022/06/09 21:37:50;;;;;;;;;;;;;;;18.64;57.55;100597.59;10370775;28;19936;-62
2022/06/09 21:42:51;;;;;;;;;;;;;;;18.61;57.55;100597.94;10369363;28;19936;-63
2022/06/09 21:47:52;;;;;;;;;;;;;;;18.52;58.91;100604.31;10372348;28;20461;-63
2022/06/09 21:52:54;;;;;;;;;;;;;;;18.46;58.90;100607.69;10372101;28;20027;-63
2022/06/09 21:57:56;;;;;;;;;;;;;;;18.12;58.58;100587.06;10372912;28;19933;-62
2022/06/09 22:02:57;;;;;;;;;;;;;;;18.11;59.94;100621.25;10372067;28;19929;-62
2022/06/09 22:07:59;;;;;;;;;;;;;;;18.21;60.10;100626.53;10378531;28;19979;-64
2022/06/09 22:13:01;;;;;;;;;;;;;;;18.20;59.65;100622.13;10375861;28;19947;-63
2022/06/09 22:18:02;;;;;;;;;;;;;;;18.05;60.75;100626.47;10373201;28;20347;-64
2022/06/09 22:23:05;;;;;;;;;;;;;;;17.83;61.64;100631.38;10369915;28;19940;-62
2022/06/09 22:28:07;;;;;;;;;;;;;;;17.80;62.26;100637.94;10372959;28;20015;-62
2022/06/09 22:33:09;;;;;;;;;;;;;;;17.83;61.96;100642.16;10372937;28;19925;-65
2022/06/09 22:38:11;;;;;;;;;;;;;;;17.72;63.32;100645.97;10371438;28;20028;-62
2022/06/09 22:43:13;;;;;;;;;;;;;;;17.81;62.94;100658.47;10370933;28;20035;-64
2022/06/09 22:48:15;;;;;;;;;;;;;;;17.81;62.86;100657.66;10371126;28;19939;-62
2022/06/09 22:53:17;;;;;;;;;;;;;;;17.60;63.20;100623.88;10374388;28;19929;-62
2022/06/09 22:58:18;;;;;;;;;;;;;;;17.76;63.32;100662.66;10380264;28;19932;-64
2022/06/09 23:03:19;;;;;;;;;;;;;;;17.79;63.48;100681.16;10380269;28;20017;-63
2022/06/09 23:08:22;;;;;;;;;;;;;;;17.76;63.54;100670.72;10378504;28;19926;-64
2022/06/09 23:13:23;;;;;;;;;;;;;;;17.72;64.41;100664.00;10377385;28;19925;-62
2022/06/09 23:18:25;;;;;;;;;;;;;;;17.69;63.98;100664.31;10378939;28;19933;-66
2022/06/09 23:23:26;;;;;;;;;;;;;;;17.47;64.73;100675.47;10379229;28;19938;-63
2022/06/09 23:28:28;;;;;;;;;;;;;;;17.40;66.11;100670.84;10378741;28;20004;-63
2022/06/09 23:33:29;;;;;;;;;;;;;;;17.43;66.01;100674.09;10379990;28;20108;-62
2022/06/09 23:38:30;;;;;;;;;;;;;;;17.47;66.05;100674.59;10379626;28;20495;-63
2022/06/09 23:43:32;;;;;;;;;;;;;;;17.43;66.10;100675.91;10376308;28;20584;-64
2022/06/09 23:48:36;;;;;;;;;;;;;;;17.42;66.46;100676.94;10380452;28;20245;-63
2022/06/09 23:53:39;;;;;;;;;;;;;;;17.36;66.85;100683.78;10381341;28;24066;-63
2022/06/09 23:58:40;;;;;;;;;;;;;;;17.33;66.69;100691.34;10381559;28;19992;-62
